LJMB

Maribor Airport

Slovenia
TAF LJMB 221400Z 2215/2315 03004KT 5000 BR BKN023 TEMPO 2215/2221 7000 NSW BECMG 2221/2223 -SN OVC015 TEMPO 2223/2308 2500 OVC010
Issued Valid From Valid To
Jan-22 @ 14:00 UTC
(3 hours ago)
Jan-22 @ 15:00 UTC
(2 hours ago)
Jan-23 @ 15:00 UTC
(in 22 hours)
Jan-22 @ 15:00 to Jan-22 @ 21:00
TAF LJMB 221400Z 2215/2315 03004KT 5000 BR BKN023
Wind Visibility Clouds Conditions
30° at 4 knots 5,005 meters
  • Broken at 2,300' AGL
  • Mist
Temporary Jan-22 @ 15:00 to Jan-22 @ 21:00
TEMPO 2215/2221 7000 NSW
Visibility Conditions
7,001 meters
Becoming Jan-22 @ 21:00 to Jan-23 @ 15:00
BECMG 2221/2223 -SN OVC015
Wind Visibility Clouds Conditions
30° at 4 knots 5,005 meters
  • Overcast at 1,500' AGL
  • Light Snow
Temporary Jan-22 @ 23:00 to Jan-23 @ 08:00
TEMPO 2223/2308 2500 OVC010
Visibility Clouds
2,494 meters
  • Overcast at 1,000' AGL
TAF LJMB 221400Z 2215/2315 03004KT 5000 BR BKN023 TEMPO 2215/2221 7000 NSW BECMG 2221/2223 -SN OVC015 TEMPO 2223/2308 2500 OVC010
Issued Jan-22 @ 14:00 UTC
(3 hours ago)
Valid From Jan-22 @ 15:00 UTC
(2 hours ago)
Valid To Jan-23 @ 15:00 UTC
(in 22 hours)
Jan-22 @ 15:00 - Jan-22 @ 21:00
Wind Visibility
30° at 4 knots 5,005 meters
Clouds
  • Broken at 2,300' AGL
Conditions
  • Mist
Temporary Jan-22 @ 15:00 - Jan-22 @ 21:00
Conditions
Becoming Jan-22 @ 21:00 - Jan-23 @ 15:00
Wind Visibility
30° at 4 knots 5,005 meters
Clouds
  • Overcast at 1,500' AGL
Conditions
  • Light Snow
Temporary Jan-22 @ 23:00 - Jan-23 @ 08:00
Clouds
  • Overcast at 1,000' AGL